Time;durP1;ratioP1;P1;durP2;ratioP2;P2;SDS_P1;SDS_P2;PMS_P1;PMS_P2;Temp;Humidity;BMP_temperature;BMP_pressure;BME280_temperature;BME280_humidity;BME280_pressure;Samples;Min_cycle;Max_cycle;Signal;HPM_P1;HPM_P2
2022/07/13 00:00:38;;;;;;;3.40;2.60;;;24.90;64.00;;;;;;4995717;28;20448;-67
2022/07/13 00:03:06;;;;;;;2.77;2.20;;;24.90;64.20;;;;;;4995652;28;20471;-67
2022/07/13 00:05:33;;;;;;;3.17;2.23;;;24.90;64.30;;;;;;4995734;28;20436;-67
2022/07/13 00:08:00;;;;;;;3.70;2.50;;;24.80;64.20;;;;;;4995930;28;20468;-67
2022/07/13 00:10:26;;;;;;;3.53;2.97;;;24.90;64.20;;;;;;4995565;28;20464;-67
2022/07/13 00:12:53;;;;;;;6.80;2.70;;;24.90;63.50;;;;;;4995599;28;20448;-67
2022/07/13 00:15:21;;;;;;;5.70;2.20;;;24.90;63.60;;;;;;4995517;28;20811;-67
2022/07/13 00:17:48;;;;;;;2.40;2.10;;;24.80;63.90;;;;;;5007718;28;20554;-67
2022/07/13 00:20:16;;;;;;;3.17;2.53;;;24.80;64.30;;;;;;5004433;28;20506;-67
2022/07/13 00:22:42;;;;;;;6.67;2.63;;;24.70;64.40;;;;;;4995741;28;20464;-67
2022/07/13 00:25:09;;;;;;;6.30;2.77;;;24.70;64.60;;;;;;5012218;28;20463;-67
2022/07/13 00:27:36;;;;;;;6.90;2.87;;;24.70;64.30;;;;;;4997945;28;20491;-67
2022/07/13 00:30:04;;;;;;;4.77;2.53;;;24.70;64.20;;;;;;4994661;28;20464;-67
2022/07/13 00:32:30;;;;;;;3.20;2.90;;;24.70;64.40;;;;;;4994720;28;20460;-67
2022/07/13 00:34:57;;;;;;;4.30;2.30;;;24.70;64.50;;;;;;4995066;28;20468;-68
2022/07/13 00:37:25;;;;;;;6.07;2.77;;;24.70;65.40;;;;;;4994850;28;20484;-67
2022/07/13 00:39:52;;;;;;;5.57;3.10;;;24.70;65.70;;;;;;4994874;28;20484;-67
2022/07/13 00:42:19;;;;;;;7.27;2.90;;;24.70;64.60;;;;;;4994942;28;20452;-67
2022/07/13 00:44:45;;;;;;;6.53;2.70;;;24.60;63.20;;;;;;4994757;28;20856;-67
2022/07/13 00:47:13;;;;;;;7.47;2.83;;;24.70;63.40;;;;;;4994512;28;21005;-67
2022/07/13 00:49:40;;;;;;;5.03;3.43;;;24.60;64.40;;;;;;4994493;28;20448;-67
2022/07/13 00:52:07;;;;;;;7.57;2.70;;;24.60;63.50;;;;;;4995194;28;20479;-67
2022/07/13 00:54:38;;;;;;;7.87;2.90;;;24.70;62.40;;;;;;4994422;28;20828;-67
2022/07/13 00:57:08;;;;;;;7.20;2.70;;;24.70;59.20;;;;;;4994532;28;20488;-67
2022/07/13 00:59:36;;;;;;;13.10;3.40;;;24.70;58.70;;;;;;4994434;28;20480;-67
2022/07/13 01:02:03;;;;;;;10.37;2.90;;;24.70;58.10;;;;;;4994452;28;20530;-67
2022/07/13 01:04:30;;;;;;;9.40;3.00;;;24.70;58.10;;;;;;4994351;28;20452;-67
2022/07/13 01:06:58;;;;;;;10.13;3.50;;;24.60;57.90;;;;;;4994414;28;20467;-67
2022/07/13 01:09:25;;;;;;;9.30;3.30;;;24.60;59.40;;;;;;4994469;28;20467;-67
2022/07/13 01:11:54;;;;;;;6.60;3.60;;;24.50;59.70;;;;;;4993923;28;20456;-67
2022/07/13 01:14:21;;;;;;;9.73;3.60;;;24.50;59.50;;;;;;4994153;28;20452;-67
2022/07/13 01:16:48;;;;;;;7.87;3.33;;;24.50;61.20;;;;;;4994337;28;20460;-67
2022/07/13 01:19:15;;;;;;;9.73;3.47;;;24.40;62.40;;;;;;4994349;28;20491;-67
2022/07/13 01:21:46;;;;;;;7.80;2.77;;;24.50;63.20;;;;;;5006991;28;20447;-67
2022/07/13 01:24:15;;;;;;;6.23;3.23;;;24.40;61.70;;;;;;5014059;28;20458;-67
2022/07/13 01:26:41;;;;;;;10.70;3.33;;;24.40;62.50;;;;;;4995554;28;20484;-67
2022/07/13 01:29:09;;;;;;;8.10;3.90;;;24.30;63.10;;;;;;4993940;28;21065;-67
2022/07/13 01:31:36;;;;;;;7.83;3.50;;;24.30;63.70;;;;;;4994364;28;20486;-67
2022/07/13 01:34:04;;;;;;;6.93;4.17;;;24.30;64.20;;;;;;4994332;28;20464;-67
2022/07/13 01:36:31;;;;;;;8.00;3.43;;;24.20;64.80;;;;;;4994246;28;20475;-67
2022/07/13 01:38:58;;;;;;;6.70;3.20;;;24.30;65.30;;;;;;4994122;28;20495;-67
2022/07/13 01:41:28;;;;;;;5.53;3.10;;;24.20;65.20;;;;;;4994332;28;20448;-67
2022/07/13 01:43:57;;;;;;;10.53;3.53;;;24.20;65.50;;;;;;4994182;28;20500;-67
2022/07/13 01:46:24;;;;;;;8.10;3.43;;;24.20;66.10;;;;;;4993788;28;20857;-67
2022/07/13 01:48:51;;;;;;;10.00;3.60;;;24.20;66.10;;;;;;4994021;28;20498;-67
2022/07/13 01:51:18;;;;;;;12.03;2.90;;;24.20;66.20;;;;;;4993876;28;20811;-67
2022/07/13 01:53:44;;;;;;;5.63;3.33;;;24.10;66.20;;;;;;4994087;28;20452;-67
2022/07/13 01:56:11;;;;;;;6.13;2.50;;;24.10;65.20;;;;;;4994699;28;20479;-67
2022/07/13 01:58:39;;;;;;;4.90;2.17;;;24.10;65.30;;;;;;4998047;28;20448;-67
2022/07/13 02:01:06;;;;;;;4.90;3.03;;;24.10;65.00;;;;;;4997793;28;20991;-67
2022/07/13 02:03:34;;;;;;;6.30;2.60;;;24.10;64.30;;;;;;4998044;28;20548;-67
2022/07/13 02:06:00;;;;;;;6.77;2.90;;;24.10;64.30;;;;;;4997631;28;20836;-67
2022/07/13 02:08:28;;;;;;;4.57;2.77;;;24.10;61.90;;;;;;4997932;28;20452;-67
2022/07/13 02:10:54;;;;;;;11.37;2.70;;;24.10;62.10;;;;;;4997857;28;20460;-67
2022/07/13 02:13:22;;;;;;;5.03;2.27;;;24.10;62.40;;;;;;4997791;28;20448;-67
2022/07/13 02:15:50;;;;;;;4.63;2.20;;;24.10;62.00;;;;;;4997474;28;20514;-67
2022/07/13 02:18:17;;;;;;;4.83;2.63;;;24.20;60.50;;;;;;4997425;28;20506;-67
2022/07/13 02:20:44;;;;;;;2.93;2.30;;;24.10;59.70;;;;;;4997536;28;20499;-67
2022/07/13 02:23:11;;;;;;;5.07;2.50;;;24.10;60.20;;;;;;4997537;28;20814;-67
2022/07/13 02:25:38;;;;;;;5.90;2.13;;;24.10;60.90;;;;;;4997560;28;20447;-67
2022/07/13 02:28:06;;;;;;;4.30;2.23;;;24.10;60.30;;;;;;4997385;28;20534;-67
2022/07/13 02:30:33;;;;;;;4.90;2.10;;;24.10;59.40;;;;;;4997433;28;20885;-67
2022/07/13 02:33:01;;;;;;;4.10;2.33;;;24.20;58.40;;;;;;4997218;28;20471;-67
2022/07/13 02:35:28;;;;;;;5.23;2.63;;;24.20;58.00;;;;;;4997374;28;20498;-67
2022/07/13 02:37:55;;;;;;;2.77;2.20;;;24.20;58.00;;;;;;4997236;28;20472;-67
2022/07/13 02:40:22;;;;;;;2.00;1.90;;;24.10;58.90;;;;;;4997105;28;20495;-67
2022/07/13 02:42:49;;;;;;;3.83;2.20;;;24.20;58.60;;;;;;4997213;28;20813;-67
2022/07/13 02:45:15;;;;;;;2.60;1.70;;;24.20;57.60;;;;;;4997160;28;20444;-67
2022/07/13 02:47:42;;;;;;;2.30;1.60;;;24.20;57.00;;;;;;4996958;28;20480;-67
2022/07/13 02:50:10;;;;;;;6.37;2.07;;;24.20;57.00;;;;;;4997125;28;20518;-67
2022/07/13 02:52:37;;;;;;;2.50;2.17;;;24.20;57.40;;;;;;4997069;28;20455;-67
2022/07/13 02:55:05;;;;;;;5.03;1.97;;;24.10;58.50;;;;;;4997024;28;20806;-67
2022/07/13 02:57:31;;;;;;;2.07;1.70;;;24.10;58.80;;;;;;4996819;28;20468;-67
2022/07/13 02:59:59;;;;;;;5.23;2.20;;;24.10;58.90;;;;;;4996775;28;20487;-67
2022/07/13 03:02:26;;;;;;;3.90;1.73;;;24.10;59.30;;;;;;4996455;28;20510;-67
2022/07/13 03:04:53;;;;;;;2.33;2.13;;;24.10;58.70;;;;;;4996866;28;20478;-67
2022/07/13 03:07:21;;;;;;;4.17;2.10;;;24.00;58.40;;;;;;4996755;28;20825;-67
2022/07/13 03:09:47;;;;;;;2.23;2.00;;;24.00;58.90;;;;;;4996357;28;20836;-67
2022/07/13 03:12:14;;;;;;;3.60;1.87;;;24.00;59.70;;;;;;4996778;28;20448;-67
2022/07/13 03:14:41;;;;;;;4.43;2.10;;;23.90;60.70;;;;;;4996437;28;20464;-67
2022/07/13 03:17:08;;;;;;;2.53;1.63;;;23.90;60.90;;;;;;4996582;28;20468;-68
2022/07/13 03:19:34;;;;;;;2.70;1.70;;;24.00;60.40;;;;;;4996462;28;20866;-68
2022/07/13 03:22:03;;;;;;;2.00;1.90;;;24.00;59.00;;;;;;4996811;28;20542;-68
2022/07/13 03:24:31;;;;;;;2.77;2.20;;;24.00;58.80;;;;;;4996126;28;20961;-68
2022/07/13 03:26:58;;;;;;;5.27;2.03;;;24.00;58.20;;;;;;4996110;28;20476;-68
2022/07/13 03:29:25;;;;;;;4.70;2.33;;;24.00;58.10;;;;;;4996160;28;20813;-68
2022/07/13 03:31:51;;;;;;;2.27;1.70;;;24.00;58.50;;;;;;4996097;28;20457;-68
2022/07/13 03:34:18;;;;;;;3.13;1.90;;;24.00;58.20;;;;;;4996259;28;20451;-68
2022/07/13 03:36:45;;;;;;;2.50;1.97;;;24.10;58.40;;;;;;4995853;28;21009;-68
2022/07/13 03:39:11;;;;;;;2.20;1.63;;;24.00;58.40;;;;;;4996027;28;20511;-68
2022/07/13 03:41:39;;;;;;;3.03;2.10;;;24.00;57.90;;;;;;4995530;28;20522;-68
2022/07/13 03:44:06;;;;;;;4.20;2.43;;;24.00;57.70;;;;;;4996126;28;20220;-68
2022/07/13 03:46:33;;;;;;;2.90;2.13;;;24.00;57.90;;;;;;4995988;28;20472;-68
2022/07/13 03:49:00;;;;;;;1.90;1.70;;;24.10;57.70;;;;;;4995931;28;20444;-68
2022/07/13 03:51:26;;;;;;;3.20;2.13;;;24.00;57.50;;;;;;4995652;28;20452;-68
2022/07/13 03:53:53;;;;;;;2.83;2.00;;;24.10;57.50;;;;;;4995911;28;20455;-68
2022/07/13 03:56:20;;;;;;;5.80;1.90;;;24.00;57.70;;;;;;4995468;28;20468;-68
2022/07/13 03:58:48;;;;;;;2.00;1.90;;;24.00;58.10;;;;;;4995473;28;20945;-68
2022/07/13 04:01:15;;;;;;;5.50;2.50;;;24.00;58.10;;;;;;4995446;28;20847;-68
2022/07/13 04:03:42;;;;;;;2.90;1.83;;;24.00;58.00;;;;;;4995645;28;20815;-68
2022/07/13 04:06:08;;;;;;;4.10;2.03;;;24.10;57.90;;;;;;4995279;28;20860;-68
2022/07/13 04:08:35;;;;;;;2.40;1.80;;;24.10;58.30;;;;;;4995659;28;20456;-68
2022/07/13 04:11:02;;;;;;;3.10;2.10;;;24.10;58.20;;;;;;4995609;28;20451;-68
2022/07/13 04:13:29;;;;;;;3.07;1.73;;;24.10;58.20;;;;;;4995305;28;20880;-68
2022/07/13 04:15:57;;;;;;;2.97;2.20;;;24.00;58.20;;;;;;4995146;28;20887;-68
2022/07/13 04:18:24;;;;;;;3.17;2.30;;;24.10;58.30;;;;;;4995446;28;20444;-68
2022/07/13 04:20:51;;;;;;;2.37;2.03;;;24.10;58.20;;;;;;4995062;28;20499;-67
2022/07/13 04:23:18;;;;;;;2.30;2.10;;;24.10;58.60;;;;;;4995404;28;20460;-67
2022/07/13 04:25:46;;;;;;;2.10;2.00;;;24.10;58.70;;;;;;4994979;28;20960;-68
2022/07/13 04:28:13;;;;;;;2.90;1.60;;;24.10;58.30;;;;;;4995153;28;20968;-68
2022/07/13 04:30:39;;;;;;;1.90;1.80;;;24.10;58.30;;;;;;4995175;28;20460;-68
2022/07/13 04:33:07;;;;;;;5.00;1.93;;;24.10;58.30;;;;;;4995391;28;20456;-68
2022/07/13 04:35:34;;;;;;;6.30;2.10;;;24.10;58.50;;;;;;4995219;28;20452;-68
2022/07/13 04:38:01;;;;;;;6.17;2.10;;;24.10;58.10;;;;;;4995206;28;20464;-68
2022/07/13 04:40:27;;;;;;;4.77;2.40;;;24.10;58.10;;;;;;4995210;28;20488;-68
2022/07/13 04:42:54;;;;;;;3.00;2.43;;;24.10;58.20;;;;;;4994941;28;20915;-67
2022/07/13 04:45:21;;;;;;;3.40;2.00;;;24.10;58.00;;;;;;4995445;28;20448;-67
2022/07/13 04:47:48;;;;;;;4.23;1.87;;;24.10;58.40;;;;;;4994981;28;20472;-68
2022/07/13 04:50:17;;;;;;;8.20;2.40;;;24.20;58.70;;;;;;4994768;28;20975;-68
2022/07/13 04:52:44;;;;;;;2.13;1.93;;;24.20;58.30;;;;;;4994937;28;20499;-68
2022/07/13 04:55:11;;;;;;;4.77;2.00;;;24.20;58.10;;;;;;4995060;28;20459;-68
2022/07/13 04:57:39;;;;;;;3.70;2.10;;;24.20;58.30;;;;;;4996257;28;20603;-69
2022/07/13 05:00:09;;;;;;;6.73;2.40;;;24.20;58.20;;;;;;4998735;28;20542;-68
2022/07/13 05:02:35;;;;;;;4.27;1.93;;;24.30;58.10;;;;;;4994833;28;20478;-68
2022/07/13 05:05:02;;;;;;;5.97;2.27;;;24.30;58.10;;;;;;4995099;28;20875;-68
2022/07/13 05:07:30;;;;;;;7.33;2.50;;;24.30;58.00;;;;;;4994211;28;20468;-68
2022/07/13 05:09:57;;;;;;;4.60;2.20;;;24.30;58.00;;;;;;4994677;28;20447;-68
2022/07/13 05:12:24;;;;;;;3.60;2.10;;;24.20;58.00;;;;;;4994708;28;20452;-67
2022/07/13 05:14:51;;;;;;;6.90;2.57;;;24.20;58.30;;;;;;4994646;28;20460;-67
2022/07/13 05:17:18;;;;;;;5.87;2.53;;;24.30;58.10;;;;;;4994604;28;20483;-68
2022/07/13 05:19:44;;;;;;;4.80;2.20;;;24.30;57.90;;;;;;4994368;28;20487;-68
2022/07/13 05:22:11;;;;;;;3.90;2.07;;;24.30;58.20;;;;;;4994623;28;20815;-68
2022/07/13 05:24:43;;;;;;;5.70;2.17;;;24.30;58.50;;;;;;4994555;28;20444;-68
2022/07/13 05:27:11;;;;;;;2.83;1.80;;;24.30;58.80;;;;;;4994540;28;20472;-68
2022/07/13 05:29:38;;;;;;;3.33;2.30;;;24.30;59.50;;;;;;4994014;28;20487;-68
2022/07/13 05:32:05;;;;;;;4.57;2.20;;;24.40;59.80;;;;;;4993186;28;20475;-68
2022/07/13 05:34:32;;;;;;;6.70;2.20;;;24.50;59.40;;;;;;4994426;28;20460;-69
2022/07/13 05:36:58;;;;;;;3.80;2.00;;;24.50;59.00;;;;;;4994372;28;20832;-69
2022/07/13 05:39:25;;;;;;;4.77;2.30;;;24.60;58.40;;;;;;4994225;28;20452;-69
2022/07/13 05:41:53;;;;;;;8.10;3.03;;;24.70;58.00;;;;;;4993774;28;20453;-69
2022/07/13 05:44:21;;;;;;;4.13;1.93;;;24.80;57.70;;;;;;4994092;28;20809;-69
2022/07/13 05:46:48;;;;;;;5.10;2.10;;;24.80;57.20;;;;;;4993709;28;20472;-69
2022/07/13 05:49:14;;;;;;;5.20;1.97;;;24.90;57.30;;;;;;4993765;28;20536;-69
2022/07/13 05:51:41;;;;;;;5.40;2.00;;;25.00;56.60;;;;;;4994136;28;20444;-69
2022/07/13 05:54:08;;;;;;;6.33;2.23;;;25.10;56.40;;;;;;4993917;28;20432;-69
2022/07/13 05:56:35;;;;;;;4.43;2.17;;;25.20;56.40;;;;;;4993973;28;20487;-69
2022/07/13 05:59:03;;;;;;;6.00;2.20;;;25.30;56.30;;;;;;4993466;28;20978;-69
2022/07/13 06:01:30;;;;;;;2.73;2.10;;;25.40;55.80;;;;;;4993698;28;20484;-69
2022/07/13 06:03:56;;;;;;;5.20;2.40;;;25.60;55.40;;;;;;4993758;28;20474;-69
2022/07/13 06:06:23;;;;;;;5.80;1.90;;;25.70;54.80;;;;;;4993653;28;20492;-69
2022/07/13 06:08:50;;;;;;;4.03;1.90;;;25.80;54.60;;;;;;4993434;28;20453;-69
2022/07/13 06:11:17;;;;;;;5.37;2.07;;;25.90;54.20;;;;;;4994187;28;20444;-70
2022/07/13 06:13:43;;;;;;;6.23;2.70;;;25.90;53.50;;;;;;4993623;28;20468;-69
2022/07/13 06:16:11;;;;;;;6.17;1.83;;;26.00;53.10;;;;;;4993665;28;20464;-69
2022/07/13 06:18:38;;;;;;;8.10;2.20;;;26.00;52.80;;;;;;4993908;28;20495;-69
2022/07/13 06:21:06;;;;;;;5.33;2.07;;;26.10;53.20;;;;;;4993776;28;20486;-69
2022/07/13 06:23:32;;;;;;;5.03;2.33;;;26.10;53.40;;;;;;4993800;28;20452;-69
2022/07/13 06:26:00;;;;;;;4.60;2.23;;;26.20;53.30;;;;;;4993483;28;20448;-69
2022/07/13 06:28:27;;;;;;;10.80;2.57;;;26.20;52.90;;;;;;4993850;28;20441;-69
2022/07/13 06:30:54;;;;;;;6.70;2.40;;;26.20;53.40;;;;;;4993646;28;20938;-69
2022/07/13 06:33:22;;;;;;;5.40;2.17;;;26.20;53.10;;;;;;4993739;28;20460;-69
2022/07/13 06:35:48;;;;;;;5.43;2.90;;;26.20;53.20;;;;;;4993566;28;20962;-68
2022/07/13 06:38:16;;;;;;;3.90;1.70;;;26.20;53.60;;;;;;4994138;28;20452;-68
2022/07/13 06:40:43;;;;;;;4.40;1.90;;;26.30;54.50;;;;;;4993944;28;20808;-68
2022/07/13 06:43:10;;;;;;;4.80;2.30;;;26.40;53.20;;;;;;4996020;28;20432;-68
2022/07/13 06:45:37;;;;;;;8.43;2.07;;;26.50;52.30;;;;;;4997044;28;20510;-68
2022/07/13 06:48:04;;;;;;;4.00;2.60;;;26.50;51.50;;;;;;4997393;28;20918;-68
2022/07/13 06:50:32;;;;;;;4.37;1.80;;;26.60;51.30;;;;;;4997307;28;20438;-68
2022/07/13 06:52:59;;;;;;;10.63;2.60;;;26.80;52.10;;;;;;4997470;28;20851;-68
2022/07/13 06:55:26;;;;;;;12.03;2.83;;;26.90;51.60;;;;;;4997345;28;20444;-68
2022/07/13 06:57:53;;;;;;;11.73;3.03;;;27.00;50.70;;;;;;4997213;28;20498;-68
2022/07/13 07:00:19;;;;;;;9.00;2.43;;;27.20;50.90;;;;;;4997141;28;20557;-68
2022/07/13 07:02:47;;;;;;;7.67;2.40;;;27.30;50.50;;;;;;4997319;28;20454;-68
2022/07/13 07:05:14;;;;;;;13.80;2.47;;;27.50;50.00;;;;;;4997191;28;20504;-68
2022/07/13 07:07:42;;;;;;;12.13;2.80;;;27.60;49.70;;;;;;4997243;28;20842;-68
2022/07/13 07:10:10;;;;;;;9.40;2.73;;;27.60;48.70;;;;;;4996968;28;20459;-69
2022/07/13 07:12:38;;;;;;;8.63;2.67;;;27.70;49.80;;;;;;4997189;28;20787;-68
2022/07/13 07:15:06;;;;;;;8.07;3.20;;;27.70;50.00;;;;;;4996587;28;20470;-69
2022/07/13 07:17:33;;;;;;;8.87;2.73;;;27.70;49.50;;;;;;4996548;28;20883;-68
2022/07/13 07:20:00;;;;;;;7.70;2.70;;;27.80;48.50;;;;;;4996533;28;20444;-68
2022/07/13 07:22:27;;;;;;;12.73;2.80;;;27.80;48.00;;;;;;4996800;28;20456;-68
2022/07/13 07:24:56;;;;;;;6.70;2.77;;;27.80;48.50;;;;;;4996812;28;20452;-68
2022/07/13 07:27:23;;;;;;;10.60;2.70;;;27.90;48.60;;;;;;4996627;28;20832;-69
2022/07/13 07:29:50;;;;;;;4.63;2.47;;;27.90;47.50;;;;;;4996645;28;20815;-68
2022/07/13 07:32:17;;;;;;;3.70;2.23;;;27.90;47.80;;;;;;4996204;28;20455;-68
2022/07/13 07:34:44;;;;;;;3.50;2.20;;;27.80;46.50;;;;;;4996105;28;20946;-68
2022/07/13 07:37:10;;;;;;;2.70;2.33;;;27.70;47.90;;;;;;4996507;28;20472;-68
2022/07/13 07:39:37;;;;;;;6.87;2.47;;;27.50;47.90;;;;;;4996292;28;20820;-68
2022/07/13 07:42:06;;;;;;;2.37;2.17;;;27.50;50.10;;;;;;4996474;28;20970;-68
2022/07/13 07:44:33;;;;;;;6.10;2.50;;;27.30;49.00;;;;;;4996346;28;20467;-68
2022/07/13 07:47:00;;;;;;;3.97;2.30;;;27.20;49.50;;;;;;4996318;28;20472;-68
2022/07/13 07:49:26;;;;;;;6.30;2.47;;;27.20;50.20;;;;;;4996524;28;20452;-68
2022/07/13 07:51:53;;;;;;;8.33;2.63;;;27.20;50.10;;;;;;4996083;28;20894;-68
2022/07/13 07:54:20;;;;;;;4.17;2.37;;;27.20;50.30;;;;;;4995041;28;20902;-68
2022/07/13 07:56:47;;;;;;;5.47;2.47;;;27.20;50.30;;;;;;4995883;28;21016;-68
2022/07/13 07:59:16;;;;;;;4.60;2.47;;;27.30;50.30;;;;;;4996169;28;20476;-68
2022/07/13 08:01:43;;;;;;;4.27;2.50;;;27.40;50.50;;;;;;4996078;28;20828;-68
2022/07/13 08:04:09;;;;;;;6.00;2.70;;;27.60;50.40;;;;;;4996277;28;20432;-68
2022/07/13 08:06:38;;;;;;;4.87;2.27;;;27.80;48.90;;;;;;4996000;28;20483;-69
2022/07/13 08:09:05;;;;;;;2.97;2.67;;;28.10;47.90;;;;;;4996121;28;20456;-69
2022/07/13 08:11:32;;;;;;;12.93;2.13;;;28.50;48.10;;;;;;4996008;28;20456;-71
2022/07/13 08:13:58;;;;;;;6.07;2.77;;;28.70;46.70;;;;;;4995981;28;20814;-71
2022/07/13 08:16:26;;;;;;;4.70;1.90;;;28.80;45.60;;;;;;4995783;28;20567;-70
2022/07/13 08:18:53;;;;;;;3.00;2.20;;;28.70;44.70;;;;;;4995419;28;20463;-69
2022/07/13 08:21:20;;;;;;;5.43;2.23;;;28.60;43.80;;;;;;4995062;28;20495;-69
2022/07/13 08:23:52;;;;;;;6.20;2.70;;;28.50;43.20;;;;;;4995223;28;20436;-70
2022/07/13 08:26:20;;;;;;;5.07;2.10;;;28.50;43.50;;;;;;4995188;28;20500;-69
2022/07/13 08:28:47;;;;;;;3.27;2.07;;;28.50;44.20;;;;;;4994928;28;20507;-69
2022/07/13 08:31:14;;;;;;;3.40;2.37;;;28.60;43.70;;;;;;4994700;28;20447;-69
2022/07/13 08:39:13;;;;;;;4.60;2.33;;;28.70;43.10;;;;;;4995466;28;20408;-70
2022/07/13 08:41:40;;;;;;;4.20;2.40;;;28.80;42.80;;;;;;4995437;28;20491;-70
2022/07/13 08:44:07;;;;;;;2.20;2.03;;;28.90;44.70;;;;;;4995539;28;20459;-70
2022/07/13 08:46:34;;;;;;;2.50;2.03;;;29.00;42.50;;;;;;4995328;28;20842;-70
2022/07/13 08:49:03;;;;;;;3.10;2.50;;;29.20;42.30;;;;;;4995519;28;20448;-71
2022/07/13 08:51:32;;;;;;;2.30;2.10;;;29.40;41.40;;;;;;4994940;28;20444;-70
2022/07/13 08:53:59;;;;;;;3.57;2.23;;;29.50;41.30;;;;;;4995914;28;20448;-71
2022/07/13 08:56:26;;;;;;;2.73;2.50;;;29.50;40.40;;;;;;4995031;28;20468;-70
2022/07/13 08:58:53;;;;;;;2.40;2.20;;;29.40;40.20;;;;;;4995040;28;20444;-70
2022/07/13 09:01:20;;;;;;;6.20;2.43;;;29.40;40.30;;;;;;4994951;28;20542;-70
2022/07/13 09:03:47;;;;;;;2.67;2.47;;;29.40;40.80;;;;;;4994618;28;20539;-71
2022/07/13 09:06:43;;;;;;;6.00;2.20;;;29.60;40.90;;;;;;4994646;28;20468;-71
2022/07/13 09:09:28;;;;;;;5.23;2.63;;;29.60;40.60;;;;;;4994147;28;20840;-70
2022/07/13 09:12:15;;;;;;;3.47;2.40;;;29.70;40.50;;;;;;4994292;28;20777;-70
2022/07/13 09:14:42;;;;;;;3.50;2.30;;;29.60;40.00;;;;;;4994207;28;20491;-70
2022/07/13 09:17:19;;;;;;;6.50;2.60;;;29.50;40.10;;;;;;4994362;28;20466;-70
2022/07/13 09:19:45;;;;;;;5.10;2.43;;;29.50;40.90;;;;;;4994094;28;20460;-67
2022/07/13 09:22:14;;;;;;;6.20;2.63;;;29.80;40.10;;;;;;4993863;28;20856;-68
2022/07/13 09:24:44;;;;;;;3.40;2.43;;;30.10;40.60;;;;;;4994654;28;20446;-69
2022/07/13 09:27:12;;;;;;;7.53;2.93;;;30.30;39.10;;;;;;4994068;28;20520;-68
2022/07/13 09:29:38;;;;;;;5.63;2.40;;;30.30;39.20;;;;;;4994073;28;20543;-68
2022/07/13 09:32:08;;;;;;;3.33;2.30;;;30.30;38.80;;;;;;4994134;28;20832;-68
2022/07/13 09:34:51;;;;;;;4.40;2.53;;;30.20;39.10;;;;;;4994877;28;20491;-68
2022/07/13 09:37:22;;;;;;;6.87;2.70;;;30.20;39.30;;;;;;4994226;28;20483;-68
2022/07/13 09:39:59;;;;;;;5.13;2.57;;;30.40;38.90;;;;;;4994190;28;20906;-68
2022/07/13 09:42:28;;;;;;;3.17;2.40;;;30.60;38.30;;;;;;4993967;28;20483;-68
2022/07/13 09:47:47;;;;;;;4.97;2.67;;;30.70;37.30;;;;;;4994054;28;20810;-68
2022/07/13 09:50:15;;;;;;;3.20;2.23;;;30.60;36.90;;;;;;4994239;28;20937;-68
2022/07/13 09:52:44;;;;;;;5.43;2.50;;;30.40;39.50;;;;;;4994427;28;20464;-68
2022/07/13 09:55:13;;;;;;;6.00;3.00;;;30.10;38.70;;;;;;4994683;28;20456;-68
2022/07/13 09:57:46;;;;;;;4.20;2.63;;;30.00;38.70;;;;;;4995396;28;20472;-68
2022/07/13 10:00:17;;;;;;;2.60;2.40;;;29.90;40.10;;;;;;4995595;28;20490;-68
2022/07/13 10:02:48;;;;;;;2.77;2.10;;;29.80;39.80;;;;;;4995755;28;20476;-67
2022/07/13 10:05:16;;;;;;;4.53;2.03;;;29.80;40.30;;;;;;4997407;28;20451;-68
2022/07/13 10:07:46;;;;;;;3.87;2.50;;;29.70;40.90;;;;;;4996994;28;20788;-68
2022/07/13 10:10:14;;;;;;;3.33;2.47;;;29.80;41.90;;;;;;4993878;28;20459;-69
2022/07/13 10:12:41;;;;;;;4.60;2.60;;;29.90;40.70;;;;;;4993658;28;20429;-68
2022/07/13 10:15:09;;;;;;;6.17;2.53;;;30.00;41.00;;;;;;4994063;28;20808;-68
2022/07/13 10:17:37;;;;;;;2.47;2.27;;;30.00;40.00;;;;;;4995515;28;20474;-68
2022/07/13 10:20:08;;;;;;;5.73;2.50;;;30.00;40.70;;;;;;4998001;28;20523;-68
2022/07/13 10:22:39;;;;;;;6.83;2.37;;;30.20;40.50;;;;;;4997477;28;20476;-68
2022/07/13 10:25:09;;;;;;;6.50;2.50;;;30.40;41.90;;;;;;4997753;28;20464;-68
2022/07/13 10:27:37;;;;;;;2.10;2.00;;;30.70;39.90;;;;;;4997773;28;20484;-68
2022/07/13 10:30:06;;;;;;;3.83;2.10;;;30.90;39.50;;;;;;4997498;28;20808;-68
2022/07/13 10:32:34;;;;;;;2.60;1.90;;;30.80;39.20;;;;;;4997509;28;20965;-68
2022/07/13 10:35:03;;;;;;;2.67;1.90;;;30.90;39.80;;;;;;4997602;28;20461;-68
2022/07/13 10:38:09;;;;;;;6.17;2.53;;;30.90;39.30;;;;;;4998209;28;20892;-68
2022/07/13 10:40:37;;;;;;;5.57;2.37;;;31.30;39.90;;;;;;4997215;28;20447;-68
2022/07/13 10:43:20;;;;;;;4.43;2.10;;;31.70;40.00;;;;;;4997568;28;20494;-68
2022/07/13 10:45:52;;;;;;;2.73;2.13;;;32.20;38.10;;;;;;4997694;28;20520;-68
2022/07/13 10:48:42;;;;;;;4.97;2.30;;;32.80;36.80;;;;;;4997713;28;20431;-68
2022/07/13 10:51:20;;;;;;;3.60;2.00;;;33.30;34.40;;;;;;4997589;28;20897;-68
2022/07/13 10:54:04;;;;;;;3.27;2.97;;;33.50;34.40;;;;;;4997461;28;20538;-68
2022/07/13 10:56:33;;;;;;;2.90;2.00;;;34.00;35.20;;;;;;4997562;28;20476;-68
2022/07/13 10:59:01;;;;;;;3.83;2.70;;;34.20;33.70;;;;;;4997564;28;20502;-68
2022/07/13 11:01:50;;;;;;;4.07;2.40;;;34.40;34.60;;;;;;4997133;28;21071;-68
2022/07/13 11:04:19;;;;;;;4.07;2.37;;;34.60;32.50;;;;;;4997362;28;20524;-68
2022/07/13 11:07:07;;;;;;;3.87;2.20;;;34.90;32.10;;;;;;4996702;28;20981;-69
2022/07/13 11:09:34;;;;;;;3.03;2.20;;;35.70;31.90;;;;;;4996758;28;20446;-70
2022/07/13 11:12:20;;;;;;;5.47;2.17;;;36.30;31.60;;;;;;4996868;28;20416;-70
2022/07/13 11:14:49;;;;;;;2.93;2.50;;;36.70;30.50;;;;;;4996550;28;20796;-68
2022/07/13 11:17:23;;;;;;;3.73;2.00;;;36.70;30.20;;;;;;4996368;28;20534;-68
2022/07/13 11:20:00;;;;;;;4.40;2.27;;;36.70;29.20;;;;;;4996678;28;20482;-68
2022/07/13 11:25:13;;;;;;;3.83;2.07;;;37.30;29.00;;;;;;4996789;28;20212;-68
2022/07/13 11:25:39;;;;;;;4.20;2.87;;;37.70;28.40;;;;;;4996260;28;20483;-68
2022/07/13 11:28:21;;;;;;;4.90;2.30;;;37.80;28.00;;;;;;4995729;28;20702;-68
2022/07/13 11:30:54;;;;;;;4.47;3.13;;;37.60;28.40;;;;;;4995940;28;20320;-68
2022/07/13 11:33:21;;;;;;;3.67;2.63;;;37.30;29.00;;;;;;4995959;28;20622;-68
2022/07/13 11:35:48;;;;;;;3.43;2.33;;;36.70;28.60;;;;;;4996758;28;20209;-69
2022/07/13 11:38:17;;;;;;;2.27;2.07;;;36.50;29.90;;;;;;4996229;28;20481;-69
2022/07/13 11:40:44;;;;;;;3.40;2.30;;;36.30;30.40;;;;;;4996222;28;20463;-69
2022/07/13 11:43:13;;;;;;;4.93;1.80;;;36.00;28.80;;;;;;4996144;28;20490;-69
2022/07/13 11:45:41;;;;;;;2.83;2.47;;;36.10;31.50;;;;;;4997035;28;20615;-69
2022/07/13 11:48:13;;;;;;;6.03;2.17;;;36.20;30.40;;;;;;4995963;28;20471;-69
2022/07/13 11:50:44;;;;;;;4.17;2.10;;;36.60;32.00;;;;;;4995783;28;20439;-69
2022/07/13 11:53:24;;;;;;;4.33;2.17;;;36.90;29.50;;;;;;4995652;28;20450;-69
2022/07/13 11:55:51;;;;;;;5.83;2.27;;;36.60;29.10;;;;;;4995951;28;20439;-69
2022/07/13 11:58:25;;;;;;;3.80;2.07;;;36.40;30.20;;;;;;4995956;28;20498;-69
2022/07/13 12:00:52;;;;;;;2.23;1.87;;;36.20;29.40;;;;;;4996009;28;20436;-69
2022/07/13 12:03:29;;;;;;;3.83;1.97;;;36.10;29.70;;;;;;4995930;28;20859;-69
2022/07/13 12:06:03;;;;;;;6.70;2.87;;;36.00;29.90;;;;;;4996334;28;20445;-69
2022/07/13 12:08:34;;;;;;;5.43;2.03;;;35.90;31.00;;;;;;4995756;28;20431;-69
2022/07/13 12:11:03;;;;;;;4.40;1.80;;;35.70;30.50;;;;;;4995535;28;20933;-69
2022/07/13 12:13:34;;;;;;;3.87;1.90;;;35.50;30.70;;;;;;4995362;28;20938;-69
2022/07/13 12:16:01;;;;;;;4.20;2.10;;;35.60;31.50;;;;;;4995758;28;20432;-69
2022/07/13 12:18:28;;;;;;;2.37;2.17;;;35.70;32.00;;;;;;4995547;28;20459;-69
2022/07/13 12:20:55;;;;;;;2.50;2.10;;;36.10;30.50;;;;;;4995481;28;20471;-68
2022/07/13 12:23:22;;;;;;;2.40;2.20;;;36.90;31.40;;;;;;4995517;28;20852;-68
2022/07/13 12:26:05;;;;;;;3.93;2.10;;;37.60;28.20;;;;;;4995369;28;20204;-68
2022/07/13 12:28:33;;;;;;;3.87;1.77;;;37.80;27.50;;;;;;4995127;28;20646;-68
2022/07/13 12:31:01;;;;;;;6.57;2.10;;;37.50;27.60;;;;;;5002510;28;20672;-68
2022/07/13 12:33:42;;;;;;;3.10;2.20;;;37.20;28.10;;;;;;5014780;28;20714;-69
2022/07/13 12:36:10;;;;;;;3.77;2.10;;;36.70;28.90;;;;;;5015545;28;20475;-70
2022/07/13 12:38:53;;;;;;;2.17;1.97;;;36.50;29.70;;;;;;4996689;28;20463;-69
2022/07/13 12:41:29;;;;;;;3.30;2.53;;;36.70;29.60;;;;;;4998013;28;20444;-69
2022/07/13 12:43:58;;;;;;;3.63;2.70;;;38.00;28.70;;;;;;4999442;28;20180;-67
2022/07/13 12:46:25;;;;;;;1.55;1.45;;;39.00;26.40;;;;;;4997036;28;20302;-68
2022/07/13 12:49:03;;;;;;;2.17;1.95;;;39.90;27.00;;;;;;4994936;28;20208;-68
2022/07/13 12:51:50;;;;;;;2.58;1.90;;;40.90;26.20;;;;;;4994654;28;20724;-68
2022/07/13 12:54:18;;;;;;;1.92;1.58;;;41.10;24.70;;;;;;4994898;28;20193;-68
2022/07/13 12:56:52;;;;;;;4.38;1.85;;;40.90;24.60;;;;;;4994848;28;20251;-68
2022/07/13 12:59:22;;;;;;;2.30;1.83;;;40.00;25.70;;;;;;4994802;28;20211;-68
2022/07/13 13:01:50;;;;;;;3.28;2.13;;;39.40;26.20;;;;;;4994626;28;20205;-68